4A6

Scottsboro Municipal-Word Field Airport

Scottsboro, Alabama, USA
METAR K4A6 261315Z AUTO 00000KT 5SM -RA FEW060 13/13 A2993 RMK AO2
Observed Flight Rules
Apr-26 @ 13:15 UTC (20 minutes ago) Marginal Visual Flight Rules
Visibility Clouds Conditions
5 miles
  • Few at 6,000' AGL
  • Light Rain
Temperatures Readings
Current 13°C / 55°F
Dewpoint 13°C / 55°F
Humidity 100%
Altimeter 29.93" Hg
Pressure 1014 hPa
Elevation 198
METAR K4A6 261315Z AUTO 00000KT 5SM -RA FEW060 13/13 A2993 RMK AO2
Observed Flight Rules
Apr-26 @ 13:15 UTC
(20 minutes ago)
MVFR
Clouds
  • Few at 6,000' AGL
Conditions
  • Light Rain
Temperature Dewpoint
13°C / 55°F 13°C / 55°F
Humidity Altimeter Pressure
100% 29.93" Hg 1014 hPa